createdAt,value
2022-08-15T00:00:44.319Z,8.50
2022-08-15T00:03:26.207Z,8.60
2022-08-15T00:06:38.309Z,9.27
2022-08-15T00:09:13.846Z,9.05
2022-08-15T00:11:48.511Z,8.57
2022-08-15T00:14:30.968Z,8.35
2022-08-15T00:17:04.265Z,8.68
2022-08-15T00:19:34.653Z,8.88
2022-08-15T00:22:18.627Z,9.13
2022-08-15T00:24:51.961Z,8.43
2022-08-15T00:27:25.959Z,9.38
2022-08-15T00:29:57.587Z,8.52
2022-08-15T00:32:49.717Z,9.05
2022-08-15T00:35:39.058Z,9.10
2022-08-15T00:38:21.109Z,9.13
2022-08-15T00:41:18.200Z,8.43
2022-08-15T00:43:52.910Z,9.23
2022-08-15T00:46:26.638Z,8.55
2022-08-15T00:48:58.035Z,9.25
2022-08-15T00:51:44.159Z,8.65
2022-08-15T00:54:56.441Z,9.80
2022-08-15T00:57:57.160Z,9.07
2022-08-15T01:00:21.479Z,9.02
2022-08-15T01:03:14.327Z,9.38
2022-08-15T01:05:51.253Z,8.93
2022-08-15T01:08:35.659Z,9.48
2022-08-15T01:11:16.177Z,9.63
2022-08-15T01:14:03.536Z,9.20
2022-08-15T01:16:41.473Z,9.77
2022-08-15T01:19:23.190Z,9.40
2022-08-15T01:22:13.752Z,10.05
2022-08-15T01:25:25.222Z,9.48
2022-08-15T01:28:04.713Z,9.40
2022-08-15T01:31:02.975Z,10.13
2022-08-15T01:33:40.141Z,9.50
2022-08-15T01:36:31.691Z,10.50
2022-08-15T01:39:12.910Z,9.77
2022-08-15T01:41:56.515Z,10.07
2022-08-15T01:44:36.536Z,9.70
2022-08-15T01:47:20.221Z,9.45
2022-08-15T01:49:59.625Z,10.15
2022-08-15T01:52:59.562Z,9.35
2022-08-15T01:55:44.076Z,9.93
2022-08-15T01:58:15.517Z,9.50
2022-08-15T02:00:59.121Z,9.07
2022-08-15T02:03:51.995Z,9.35
2022-08-15T02:06:35.382Z,9.60
2022-08-15T02:09:37.483Z,9.80
2022-08-15T02:12:02.571Z,10.23
2022-08-15T02:14:38.295Z,9.77
2022-08-15T02:17:09.677Z,10.45
2022-08-15T02:19:45.677Z,9.57
2022-08-15T02:22:25.004Z,9.25
2022-08-15T02:24:56.510Z,9.25
2022-08-15T02:27:26.368Z,9.63
2022-08-15T02:29:57.973Z,9.60
2022-08-15T02:32:30.192Z,9.75
2022-08-15T02:35:03.111Z,9.02
2022-08-15T02:37:36.491Z,9.88
2022-08-15T02:40:46.539Z,9.20
2022-08-15T02:43:04.510Z,9.30
2022-08-15T02:45:57.282Z,9.35
2022-08-15T02:48:28.977Z,9.77
2022-08-15T02:50:58.488Z,10.23
2022-08-15T02:53:30.474Z,10.52
2022-08-15T02:56:01.382Z,10.82
2022-08-15T02:58:31.624Z,9.38
2022-08-15T03:01:08.297Z,9.27
2022-08-15T03:03:50.749Z,8.57
2022-08-15T03:06:31.156Z,9.13
2022-08-15T03:09:05.780Z,9.48
2022-08-15T03:11:39.782Z,8.90
2022-08-15T03:14:33.226Z,9.38
2022-08-15T03:17:09.192Z,8.68
2022-08-15T03:19:41.070Z,9.33
2022-08-15T03:22:20.183Z,8.68
2022-08-15T03:25:03.576Z,8.82
2022-08-15T03:27:34.508Z,9.30
2022-08-15T03:30:19.249Z,8.95
2022-08-15T03:32:56.261Z,8.88
2022-08-15T03:35:32.471Z,8.27
2022-08-15T03:38:05.757Z,8.15
2022-08-15T03:40:36.800Z,8.00
2022-08-15T03:43:14.467Z,9.10
2022-08-15T03:45:52.357Z,9.07
2022-08-15T03:48:28.652Z,8.25
2022-08-15T03:53:31.004Z,8.73
2022-08-15T03:56:02.595Z,8.63
2022-08-15T03:58:35.582Z,8.77
2022-08-15T04:01:08.003Z,8.93
2022-08-15T04:03:39.033Z,9.15
2022-08-15T04:06:11.880Z,8.95
2022-08-15T04:09:13.022Z,9.77
2022-08-15T04:11:37.982Z,9.65
2022-08-15T04:14:31.108Z,10.25
2022-08-15T04:17:12.620Z,9.88
2022-08-15T04:22:39.192Z,9.80
2022-08-15T04:25:24.822Z,10.48
2022-08-15T04:28:39.030Z,10.73
2022-08-15T04:31:00.053Z,13.98
2022-08-15T04:34:22.346Z,12.35
2022-08-15T04:36:29.586Z,11.40
2022-08-15T04:39:03.185Z,9.68
2022-08-15T04:41:39.097Z,10.75
2022-08-15T04:44:28.440Z,10.68
2022-08-15T04:46:59.138Z,10.90
2022-08-15T04:49:29.525Z,11.15
2022-08-15T04:52:11.810Z,12.32
2022-08-15T04:54:57.811Z,20.00
2022-08-15T04:57:30.762Z,22.15
2022-08-15T05:00:04.036Z,16.67
2022-08-15T05:03:00.865Z,19.42
2022-08-15T05:05:25.574Z,24.83
2022-08-15T05:08:14.082Z,19.90
2022-08-15T05:10:44.083Z,17.35
2022-08-15T05:13:18.340Z,15.13
2022-08-15T05:15:54.090Z,15.23
2022-08-15T05:18:24.689Z,15.07
2022-08-15T05:20:53.814Z,14.93
2022-08-15T05:23:34.340Z,14.77
2022-08-15T05:26:53.664Z,14.15
2022-08-15T05:29:05.294Z,15.00
2022-08-15T05:31:37.851Z,16.75
2022-08-15T05:34:10.102Z,17.52
2022-08-15T05:36:54.250Z,18.65
2022-08-15T05:39:34.969Z,18.77
2022-08-15T05:42:31.207Z,20.50
2022-08-15T05:45:31.313Z,23.25
2022-08-15T05:48:20.907Z,22.45
2022-08-15T05:51:00.069Z,21.75
2022-08-15T05:53:39.691Z,19.67
2022-08-15T05:56:21.336Z,20.75
2022-08-15T05:58:57.785Z,22.35
2022-08-15T06:01:36.028Z,22.80
2022-08-15T06:04:30.218Z,25.05
2022-08-15T06:07:01.968Z,22.98
2022-08-15T06:09:43.474Z,24.20
2022-08-15T06:12:26.614Z,24.13
2022-08-15T06:15:08.394Z,26.27
2022-08-15T06:17:46.297Z,28.95
2022-08-15T06:20:30.683Z,29.42
2022-08-15T06:23:37.183Z,29.98
2022-08-15T06:26:25.387Z,31.80
2022-08-15T06:29:56.893Z,31.85
2022-08-15T06:32:38.116Z,32.53
2022-08-15T06:35:25.758Z,32.30
2022-08-15T06:38:30.687Z,33.47
2022-08-15T06:41:02.373Z,29.75
2022-08-15T06:43:34.388Z,28.20
2022-08-15T06:46:46.954Z,28.38
2022-08-15T06:49:05.445Z,25.75
2022-08-15T06:51:45.490Z,26.15
2022-08-15T06:54:36.261Z,25.80
2022-08-15T06:57:20.725Z,27.67
2022-08-15T07:00:34.635Z,22.88
2022-08-15T07:03:17.715Z,20.75
2022-08-15T07:05:53.080Z,19.48
2022-08-15T07:08:32.592Z,17.50
2022-08-15T07:11:13.980Z,16.33
2022-08-15T07:14:20.433Z,15.48
2022-08-15T07:16:55.950Z,15.00
2022-08-15T07:19:34.620Z,14.23
2022-08-15T07:22:06.121Z,12.25
2022-08-15T07:24:39.548Z,11.85
2022-08-15T07:27:13.780Z,8.77
2022-08-15T07:29:55.790Z,8.43
2022-08-15T07:32:34.971Z,7.80
2022-08-15T07:35:25.188Z,7.47
2022-08-15T07:38:02.038Z,6.82
2022-08-15T07:40:56.585Z,5.72
2022-08-15T07:43:33.676Z,5.03
2022-08-15T07:46:23.148Z,4.75
2022-08-15T07:49:01.288Z,4.38
2022-08-15T07:51:46.613Z,4.22
2022-08-15T07:54:34.999Z,4.20
2022-08-15T08:00:38.843Z,3.28
2022-08-15T08:03:21.815Z,5.10
2022-08-15T08:05:59.120Z,3.58
2022-08-15T08:08:55.614Z,3.85
2022-08-15T08:11:55.025Z,3.53
2022-08-15T08:14:45.925Z,3.33
2022-08-15T08:17:20.539Z,3.13
2022-08-15T08:20:05.390Z,3.53
2022-08-15T08:22:46.072Z,3.28
2022-08-15T08:26:01.145Z,3.30
2022-08-15T08:28:34.749Z,3.40
2022-08-15T08:31:15.527Z,3.42
2022-08-15T08:34:05.680Z,3.30
2022-08-15T08:36:56.774Z,3.20
2022-08-15T08:39:42.326Z,3.17
2022-08-15T08:42:33.905Z,3.53
2022-08-15T08:45:31.168Z,2.90
2022-08-15T08:48:26.258Z,3.08
2022-08-15T08:51:10.331Z,3.17
2022-08-15T08:53:51.268Z,2.88
2022-08-15T09:01:42.758Z,3.10
2022-08-15T09:04:19.101Z,2.70
2022-08-15T09:06:51.183Z,2.72
2022-08-15T09:09:32.057Z,3.05
2022-08-15T09:12:29.356Z,2.72
2022-08-15T09:15:14.722Z,2.80
2022-08-15T09:17:58.068Z,3.00
2022-08-15T09:20:34.067Z,2.92
2022-08-15T09:25:38.459Z,3.03
2022-08-15T09:28:29.746Z,3.30
2022-08-15T09:31:09.414Z,4.70
2022-08-15T09:34:11.758Z,3.38
2022-08-15T09:37:25.943Z,3.30
2022-08-15T09:41:12.818Z,3.53
2022-08-15T09:44:28.035Z,2.67
2022-08-15T09:47:49.746Z,2.90
2022-08-15T09:51:06.200Z,3.10
2022-08-15T09:54:01.832Z,3.25
2022-08-15T09:56:38.816Z,3.03
2022-08-15T09:59:19.529Z,3.47
2022-08-15T10:01:57.047Z,3.20
2022-08-15T10:05:02.733Z,2.97
2022-08-15T10:07:53.465Z,3.30
2022-08-15T10:10:28.931Z,3.58
2022-08-15T10:13:49.166Z,3.13
2022-08-15T10:16:49.064Z,3.20
2022-08-15T10:19:43.699Z,3.15
2022-08-15T10:22:52.312Z,3.25
2022-08-15T10:25:30.712Z,3.13
2022-08-15T10:28:37.117Z,2.92
2022-08-15T10:31:51.702Z,3.22
2022-08-15T10:34:39.320Z,3.25
2022-08-15T10:37:25.861Z,3.47
2022-08-15T10:40:45.104Z,4.00
2022-08-15T10:43:54.479Z,3.42
2022-08-15T10:46:44.789Z,3.35
2022-08-15T10:49:31.472Z,2.92
2022-08-15T10:52:24.447Z,3.30
2022-08-15T10:55:56.846Z,3.20
2022-08-15T10:58:30.740Z,4.00
2022-08-15T11:01:08.942Z,3.90
2022-08-15T11:04:50.113Z,3.38
2022-08-15T11:06:46.543Z,4.05
2022-08-15T11:09:21.127Z,3.63
2022-08-15T11:11:59.373Z,3.65
2022-08-15T11:14:37.560Z,4.30
2022-08-15T11:17:10.642Z,4.60
2022-08-15T11:20:07.036Z,4.28
2022-08-15T11:22:43.174Z,4.00
2022-08-15T11:25:21.338Z,4.53
2022-08-15T11:28:36.482Z,5.22
2022-08-15T11:31:06.131Z,6.50
2022-08-15T11:33:43.313Z,6.20
2022-08-15T11:36:18.344Z,6.25
2022-08-15T11:41:50.216Z,5.53
2022-08-15T11:44:27.371Z,6.28
2022-08-15T11:46:58.244Z,6.38
2022-08-15T11:49:36.332Z,6.65
2022-08-15T11:52:41.947Z,6.65
2022-08-15T11:55:29.220Z,6.93
2022-08-15T11:58:03.381Z,7.32
2022-08-15T12:00:44.770Z,7.45
2022-08-15T12:06:29.017Z,7.03
2022-08-15T12:09:16.163Z,7.80
2022-08-15T12:11:52.506Z,8.00
2022-08-15T12:13:10.363Z,7.07
2022-08-15T12:14:30.096Z,6.95
2022-08-15T12:17:03.909Z,8.38
2022-08-15T12:20:26.415Z,8.30
2022-08-15T12:22:52.753Z,9.23
2022-08-15T12:25:53.324Z,8.63
2022-08-15T12:28:37.142Z,9.02
2022-08-15T12:31:15.523Z,8.20
2022-08-15T12:33:52.137Z,9.50
2022-08-15T12:37:01.966Z,9.23
2022-08-15T12:39:16.525Z,10.85
2022-08-15T12:42:54.673Z,10.23
2022-08-15T12:44:48.310Z,10.38
2022-08-15T12:47:20.016Z,10.02
2022-08-15T12:50:02.906Z,10.15
2022-08-15T12:52:33.925Z,10.23
2022-08-15T12:55:02.977Z,9.68
2022-08-15T12:57:52.431Z,11.15
2022-08-15T13:00:36.050Z,10.20
2022-08-15T13:03:27.821Z,9.60
2022-08-15T13:06:31.848Z,10.23
2022-08-15T13:08:58.036Z,9.93
2022-08-15T13:11:26.427Z,8.90
2022-08-15T13:13:55.583Z,10.20
2022-08-15T13:17:05.683Z,10.93
2022-08-15T13:19:23.727Z,11.35
2022-08-15T13:22:30.881Z,8.60
2022-08-15T13:25:00.987Z,7.43
2022-08-15T13:27:34.122Z,6.53
2022-08-15T13:30:20.079Z,7.10
2022-08-15T13:32:51.744Z,6.72
2022-08-15T13:35:29.744Z,6.72
2022-08-15T13:38:22.127Z,6.45
2022-08-15T13:40:55.261Z,6.60
2022-08-15T13:43:56.022Z,5.88
2022-08-15T13:46:29.491Z,6.70
2022-08-15T13:49:05.146Z,6.05
2022-08-15T13:52:23.976Z,6.75
2022-08-15T13:54:46.148Z,6.88
2022-08-15T13:57:26.632Z,7.97
2022-08-15T13:59:57.970Z,7.05
2022-08-15T14:02:35.717Z,6.78
2022-08-15T14:05:08.803Z,7.25
2022-08-15T14:08:28.215Z,7.40
2022-08-15T14:11:12.983Z,8.40
2022-08-15T14:13:44.422Z,7.93
2022-08-15T14:16:56.648Z,9.00
2022-08-15T14:19:06.184Z,7.10
2022-08-15T14:21:37.247Z,7.28
2022-08-15T14:24:35.061Z,7.90
2022-08-15T14:27:40.129Z,7.47
2022-08-15T14:30:04.846Z,8.32
2022-08-15T14:32:51.899Z,9.50
2022-08-15T14:35:24.056Z,8.15
2022-08-15T14:37:57.054Z,8.50
2022-08-15T14:40:29.599Z,8.32
2022-08-15T14:43:03.014Z,7.10
2022-08-15T14:46:34.855Z,7.50
2022-08-15T14:48:50.242Z,7.53
2022-08-15T14:52:16.528Z,7.60
2022-08-15T14:54:39.840Z,7.80
2022-08-15T14:57:13.041Z,7.57
2022-08-15T14:59:58.823Z,7.75
2022-08-15T15:02:38.607Z,8.23
2022-08-15T15:05:13.551Z,7.40
2022-08-15T15:07:57.282Z,7.47
2022-08-15T15:10:34.008Z,6.82
2022-08-15T15:13:05.888Z,7.38
2022-08-15T15:15:42.562Z,7.40
2022-08-15T15:21:07.097Z,7.85
2022-08-15T15:23:37.728Z,8.30
2022-08-15T15:26:09.519Z,8.15
2022-08-15T15:28:41.945Z,8.20
2022-08-15T15:31:14.730Z,8.48
2022-08-15T15:33:44.072Z,7.30
2022-08-15T15:36:29.010Z,8.40
2022-08-15T15:39:02.417Z,8.07
2022-08-15T15:41:47.112Z,7.40
2022-08-15T15:44:21.397Z,6.60
2022-08-15T15:46:57.099Z,7.03
2022-08-15T15:49:39.989Z,7.03
2022-08-15T15:52:31.701Z,7.35
2022-08-15T15:55:06.195Z,8.07
2022-08-15T15:58:01.461Z,7.00
2022-08-15T16:00:30.161Z,6.85
2022-08-15T16:03:13.827Z,7.78
2022-08-15T16:06:02.453Z,8.20
2022-08-15T16:08:44.693Z,7.22
2022-08-15T16:11:25.954Z,6.88
2022-08-15T16:14:13.939Z,8.45
2022-08-15T16:16:58.122Z,6.95
2022-08-15T16:19:37.251Z,8.27
2022-08-15T16:22:19.936Z,6.80
2022-08-15T16:25:00.808Z,7.13
2022-08-15T16:27:37.926Z,7.05
2022-08-15T16:30:30.161Z,7.10
2022-08-15T16:33:21.061Z,7.30
2022-08-15T16:36:23.307Z,7.57
2022-08-15T16:39:05.920Z,6.40
2022-08-15T16:41:44.639Z,8.27
2022-08-15T16:44:21.989Z,7.38
2022-08-15T16:47:07.081Z,7.55
2022-08-15T16:50:08.778Z,6.63
2022-08-15T16:52:49.108Z,6.80
2022-08-15T16:55:30.347Z,6.13
2022-08-15T16:58:37.989Z,7.40
2022-08-15T17:01:40.491Z,6.88
2022-08-15T17:04:45.954Z,6.95
2022-08-15T17:07:30.164Z,6.60
2022-08-15T17:10:16.066Z,6.90
2022-08-15T17:12:57.557Z,6.85
2022-08-15T17:18:50.227Z,6.95
2022-08-15T17:21:39.233Z,7.20
2022-08-15T17:24:55.870Z,6.47
2022-08-15T17:28:02.803Z,7.35
2022-08-15T17:30:56.676Z,6.97
2022-08-15T17:33:34.039Z,7.85
2022-08-15T17:36:15.920Z,7.05
2022-08-15T17:39:06.054Z,7.35
2022-08-15T17:41:47.518Z,6.95
2022-08-15T17:44:56.578Z,7.45
2022-08-15T17:47:23.939Z,9.20
2022-08-15T17:50:04.961Z,8.18
2022-08-15T17:52:40.781Z,9.48
2022-08-15T17:55:20.694Z,11.20
2022-08-15T17:58:00.659Z,12.27
2022-08-15T18:00:35.864Z,13.80
2022-08-15T18:03:12.676Z,15.70
2022-08-15T18:06:03.502Z,15.52
2022-08-15T18:08:36.633Z,16.33
2022-08-15T18:11:06.387Z,18.50
2022-08-15T18:13:39.793Z,20.25
2022-08-15T18:16:26.036Z,18.05
2022-08-15T18:19:12.999Z,17.90
2022-08-15T18:21:57.619Z,17.08
2022-08-15T18:24:56.856Z,16.80
2022-08-15T18:27:56.006Z,17.38
2022-08-15T18:30:41.795Z,17.77
2022-08-15T18:33:58.023Z,14.30
2022-08-15T18:36:37.077Z,11.10
2022-08-15T18:39:26.825Z,10.38
2022-08-15T18:42:00.521Z,9.70
2022-08-15T18:44:39.484Z,10.13
2022-08-15T18:47:12.153Z,9.02
2022-08-15T18:49:44.423Z,9.82
2022-08-15T18:52:34.750Z,9.45
2022-08-15T18:55:09.273Z,8.90
2022-08-15T18:57:52.380Z,9.57
2022-08-15T19:00:32.699Z,10.85
2022-08-15T19:03:06.983Z,10.80
2022-08-15T19:05:43.344Z,11.10
2022-08-15T19:08:37.395Z,11.85
2022-08-15T19:11:14.831Z,11.77
2022-08-15T19:13:58.355Z,13.85
2022-08-15T19:16:55.099Z,11.73
2022-08-15T19:19:35.222Z,16.05
2022-08-15T19:22:08.968Z,13.60
2022-08-15T19:24:45.703Z,14.25
2022-08-15T19:27:27.436Z,15.32
2022-08-15T19:30:18.807Z,15.00
2022-08-15T19:33:09.219Z,14.70
2022-08-15T19:36:20.432Z,14.07
2022-08-15T19:39:11.832Z,15.90
2022-08-15T19:41:58.579Z,15.40
2022-08-15T19:44:39.744Z,15.57
2022-08-15T19:47:21.833Z,15.20
2022-08-15T19:50:20.207Z,18.48
2022-08-15T19:53:13.327Z,18.05
2022-08-15T19:55:56.274Z,17.52
2022-08-15T19:58:52.694Z,17.90
2022-08-15T20:04:38.381Z,18.02
2022-08-15T20:07:15.683Z,17.02
2022-08-15T20:10:05.379Z,17.67
2022-08-15T20:12:46.632Z,18.73
2022-08-15T20:15:29.538Z,17.92
2022-08-15T20:18:29.717Z,17.27
2022-08-15T20:21:09.676Z,18.63
2022-08-15T20:23:55.561Z,19.02
2022-08-15T20:26:39.356Z,19.00
2022-08-15T20:29:27.793Z,18.92
2022-08-15T20:32:23.479Z,20.13
2022-08-15T20:35:15.023Z,20.55
2022-08-15T20:37:54.938Z,21.88
2022-08-15T20:40:32.329Z,21.10
2022-08-15T20:43:13.092Z,22.33
2022-08-15T20:45:52.214Z,20.73
2022-08-15T20:48:41.388Z,22.40
2022-08-15T20:51:27.229Z,22.88
2022-08-15T20:54:35.299Z,21.90
2022-08-15T20:57:11.255Z,21.75
2022-08-15T21:01:11.562Z,22.25
2022-08-15T21:03:18.183Z,23.83
2022-08-15T21:06:18.629Z,24.60
2022-08-15T21:09:19.374Z,22.65
2022-08-15T21:12:29.649Z,24.52
2022-08-15T21:18:24.800Z,25.80
2022-08-15T21:21:16.664Z,26.20
2022-08-15T21:24:17.391Z,29.88
2022-08-15T21:26:51.232Z,28.40
2022-08-15T21:29:35.350Z,29.67
2022-08-15T21:32:43.357Z,31.42
2022-08-15T21:35:35.211Z,29.10
2022-08-15T21:38:07.890Z,31.55
2022-08-15T21:40:51.914Z,33.03
2022-08-15T21:44:10.966Z,32.97
2022-08-15T21:47:41.799Z,32.72
2022-08-15T21:50:48.225Z,33.65
2022-08-15T21:53:31.033Z,33.42
2022-08-15T21:56:11.317Z,36.17
2022-08-15T22:00:19.519Z,37.75
2022-08-15T22:02:34.291Z,36.03
2022-08-15T22:05:05.436Z,37.05
2022-08-15T22:07:41.729Z,36.17
2022-08-15T22:10:19.289Z,37.42
2022-08-15T22:12:53.411Z,38.65
2022-08-15T22:15:26.844Z,38.60
2022-08-15T22:18:27.625Z,38.88
2022-08-15T22:21:00.520Z,38.58
2022-08-15T22:26:37.532Z,40.45
2022-08-15T22:29:03.441Z,39.47
2022-08-15T22:34:25.694Z,38.60
2022-08-15T22:36:58.460Z,39.28
2022-08-15T22:39:43.049Z,38.63
2022-08-15T22:42:17.641Z,39.10
2022-08-15T22:44:49.254Z,37.03
2022-08-15T22:47:21.935Z,35.42
2022-08-15T22:49:55.021Z,34.25
2022-08-15T22:52:28.204Z,33.63
2022-08-15T22:55:02.549Z,35.03
2022-08-15T22:57:58.927Z,35.08
2022-08-15T23:00:52.142Z,31.38
2022-08-15T23:03:37.960Z,30.23
2022-08-15T23:06:23.650Z,28.52
2022-08-15T23:09:03.769Z,28.80
2022-08-15T23:11:49.193Z,29.08
2022-08-15T23:14:29.073Z,28.50
2022-08-15T23:17:08.567Z,29.88
2022-08-15T23:19:46.809Z,29.35
2022-08-15T23:22:32.449Z,29.00
2022-08-15T23:25:08.491Z,30.77
2022-08-15T23:27:42.836Z,30.33
2022-08-15T23:30:30.977Z,28.90
2022-08-15T23:33:27.559Z,31.73
2022-08-15T23:36:00.845Z,32.35
2022-08-15T23:38:29.927Z,33.53
2022-08-15T23:41:09.069Z,33.00
2022-08-15T23:43:55.803Z,35.63
2022-08-15T23:46:36.940Z,37.45
2022-08-15T23:49:08.792Z,37.20
2022-08-15T23:51:42.406Z,37.97
2022-08-15T23:54:15.329Z,37.88
2022-08-15T23:56:46.032Z,36.85
2022-08-15T23:59:24.909Z,34.55
